createdAt,value
2023-07-19T00:02:27.425Z,97221.36
2023-07-19T00:04:55.289Z,97218.39
2023-07-19T00:07:23.088Z,97214.61
2023-07-19T00:09:50.778Z,97207.23
2023-07-19T00:12:18.570Z,97205.02
2023-07-19T00:14:46.314Z,97199.52
2023-07-19T00:17:14.156Z,97192.94
2023-07-19T00:19:41.880Z,97188.52
2023-07-19T00:22:10.136Z,97186.34
2023-07-19T00:24:37.910Z,97184.13
2023-07-19T00:27:05.859Z,97177.97
2023-07-19T00:29:33.632Z,97165.88
2023-07-19T00:32:01.275Z,97147.10
2023-07-19T00:34:29.059Z,97133.06
2023-07-19T00:36:56.810Z,97125.83
2023-07-19T00:39:24.533Z,97126.69
2023-07-19T00:41:52.343Z,97138.55
2023-07-19T00:44:20.568Z,97151.77
2023-07-19T00:46:48.324Z,97158.54
2023-07-19T00:49:16.049Z,97157.27
2023-07-19T00:51:43.856Z,97153.55
2023-07-19T00:54:11.689Z,97149.17
2023-07-19T00:56:42.034Z,97145.58
2023-07-19T00:59:09.796Z,97140.04
2023-07-19T01:01:37.701Z,97132.75
2023-07-19T01:04:05.744Z,97130.91
2023-07-19T01:06:33.449Z,97129.09
2023-07-19T01:09:01.307Z,97127.41
2023-07-19T01:11:29.116Z,97123.96
2023-07-19T01:13:56.872Z,97118.62
2023-07-19T01:16:24.699Z,97112.48
2023-07-19T01:18:52.479Z,97113.38
2023-07-19T01:21:23.916Z,97116.30
2023-07-19T01:23:52.253Z,97118.40
2023-07-19T01:26:20.063Z,97115.59
2023-07-19T01:28:48.083Z,97105.45
2023-07-19T01:31:19.186Z,97100.55
2023-07-19T01:33:47.621Z,97099.16
2023-07-19T01:36:15.382Z,97099.59
2023-07-19T01:38:43.006Z,97097.10
2023-07-19T01:41:10.767Z,97100.11
2023-07-19T01:43:38.534Z,97105.10
2023-07-19T01:46:06.289Z,97109.67
2023-07-19T01:48:34.488Z,97100.30
2023-07-19T01:51:03.839Z,97091.06
2023-07-19T01:53:31.760Z,97089.41
2023-07-19T01:55:59.630Z,97089.78
2023-07-19T01:58:27.319Z,97083.84
2023-07-19T02:00:55.439Z,97087.58
2023-07-19T02:03:23.398Z,97083.52
2023-07-19T02:06:00.917Z,97073.92
2023-07-19T02:08:29.054Z,97070.52
2023-07-19T02:10:56.760Z,97081.58
2023-07-19T02:13:24.528Z,97085.51
2023-07-19T02:15:52.320Z,97080.63
2023-07-19T02:18:22.160Z,97076.64
2023-07-19T02:20:52.797Z,97073.34
2023-07-19T02:23:20.816Z,97068.68
2023-07-19T02:25:49.560Z,97064.75
2023-07-19T02:28:17.796Z,97061.84
2023-07-19T02:30:46.023Z,97055.46
2023-07-19T02:33:14.480Z,97049.73
2023-07-19T02:35:42.830Z,97051.68
2023-07-19T02:38:11.597Z,97065.06
2023-07-19T02:40:40.768Z,97068.68
2023-07-19T02:43:08.554Z,97073.98
2023-07-19T02:45:36.418Z,97082.89
2023-07-19T02:48:04.138Z,97091.78
2023-07-19T02:50:32.044Z,97093.62
2023-07-19T02:52:59.711Z,97089.80
2023-07-19T02:55:27.484Z,97081.98
2023-07-19T02:57:55.282Z,97070.02
2023-07-19T03:00:22.994Z,97065.64
2023-07-19T03:02:55.709Z,97065.64
2023-07-19T03:05:23.923Z,97065.31
2023-07-19T03:07:52.048Z,97066.12
2023-07-19T03:10:19.773Z,97065.10
2023-07-19T03:12:47.454Z,97065.52
2023-07-19T03:15:15.549Z,97058.30
2023-07-19T03:17:43.346Z,97056.27
2023-07-19T03:20:11.792Z,97059.61
2023-07-19T03:22:39.621Z,97060.84
2023-07-19T03:25:07.597Z,97059.42
2023-07-19T03:27:35.398Z,97061.75
2023-07-19T03:30:03.526Z,97061.86
2023-07-19T03:32:31.264Z,97061.20
2023-07-19T03:34:59.027Z,97056.94
2023-07-19T03:37:26.708Z,97053.54
2023-07-19T03:39:54.508Z,97054.73
2023-07-19T03:42:22.234Z,97051.55
2023-07-19T03:44:49.998Z,97048.86
2023-07-19T03:47:17.701Z,97050.52
2023-07-19T03:49:45.479Z,97050.64
2023-07-19T03:52:13.265Z,97046.42
2023-07-19T03:54:40.932Z,97046.20
2023-07-19T03:57:08.741Z,97046.80
2023-07-19T03:59:36.505Z,97046.90
2023-07-19T04:02:04.352Z,97048.67
2023-07-19T04:04:32.234Z,97045.52
2023-07-19T04:07:00.089Z,97041.89
2023-07-19T04:09:27.769Z,97037.88
2023-07-19T04:11:55.752Z,97038.77
2023-07-19T04:14:23.586Z,97046.43
2023-07-19T04:16:51.440Z,97048.91
2023-07-19T04:19:19.179Z,97048.47
2023-07-19T04:21:46.969Z,97054.95
2023-07-19T04:24:14.715Z,97056.31
2023-07-19T04:26:42.474Z,97054.36
2023-07-19T04:29:10.240Z,97056.09
2023-07-19T04:31:37.948Z,97055.07
2023-07-19T04:34:05.683Z,97042.69
2023-07-19T04:36:33.430Z,97041.55
2023-07-19T04:39:01.152Z,97048.85
2023-07-19T04:41:29.113Z,97038.19
2023-07-19T04:43:57.289Z,97048.48
2023-07-19T04:46:25.686Z,97056.36
2023-07-19T04:48:53.537Z,97055.11
2023-07-19T04:51:21.789Z,97049.50
2023-07-19T04:53:49.984Z,97056.63
2023-07-19T04:56:17.908Z,97061.29
2023-07-19T04:58:45.639Z,97058.65
2023-07-19T05:01:13.356Z,97055.31
2023-07-19T05:03:41.215Z,97054.02
2023-07-19T05:06:09.353Z,97057.21
2023-07-19T05:08:38.687Z,97054.50
2023-07-19T05:11:06.581Z,97051.52
2023-07-19T05:13:34.308Z,97057.43
2023-07-19T05:16:03.073Z,97059.77
2023-07-19T05:18:30.880Z,97058.59
2023-07-19T05:20:58.747Z,97056.29
2023-07-19T05:23:26.772Z,97053.27
2023-07-19T05:25:54.599Z,97048.64
2023-07-19T05:28:22.471Z,97040.66
2023-07-19T05:30:50.188Z,97040.27
2023-07-19T05:33:18.350Z,97037.80
2023-07-19T05:35:48.312Z,97037.34
2023-07-19T05:38:16.414Z,97032.48
2023-07-19T05:40:44.234Z,97027.16
2023-07-19T05:43:11.935Z,97026.56
2023-07-19T05:45:39.798Z,97028.91
2023-07-19T05:48:07.680Z,97021.36
2023-07-19T05:50:36.617Z,97016.05
2023-07-19T05:53:04.720Z,97016.27
2023-07-19T05:55:32.493Z,97015.05
2023-07-19T05:58:00.206Z,97014.50
2023-07-19T06:00:30.041Z,97010.01
2023-07-19T06:02:58.418Z,97006.29
2023-07-19T06:05:27.297Z,97006.23
2023-07-19T06:07:56.671Z,97002.32
2023-07-19T06:10:27.487Z,97005.23
2023-07-19T06:12:55.244Z,97003.21
2023-07-19T06:15:23.081Z,96994.40
2023-07-19T06:17:51.314Z,96993.13
2023-07-19T06:20:19.197Z,96993.23
2023-07-19T06:22:47.045Z,96994.12
2023-07-19T06:25:16.675Z,96991.75
2023-07-19T06:27:44.489Z,96997.71
2023-07-19T06:30:12.469Z,96999.27
2023-07-19T06:32:40.392Z,96996.57
2023-07-19T06:35:10.244Z,96987.04
2023-07-19T06:37:38.208Z,96984.66
2023-07-19T06:40:06.956Z,96985.52
2023-07-19T06:42:34.768Z,96978.50
2023-07-19T06:45:02.482Z,96975.90
2023-07-19T06:47:31.306Z,96962.63
2023-07-19T06:49:59.596Z,96956.30
2023-07-19T06:52:29.218Z,96953.50
2023-07-19T06:54:57.343Z,96953.90
2023-07-19T06:57:25.160Z,96950.37
2023-07-19T06:59:53.264Z,96951.13
2023-07-19T07:02:21.140Z,96955.14
2023-07-19T07:04:49.488Z,96955.02
2023-07-19T07:07:20.435Z,96956.92
2023-07-19T07:09:48.408Z,96950.20
2023-07-19T07:12:16.279Z,96953.42
2023-07-19T07:14:44.052Z,96960.11
2023-07-19T07:17:11.940Z,96958.21
2023-07-19T07:19:39.642Z,96961.27
2023-07-19T07:22:07.316Z,96962.27
2023-07-19T07:24:35.855Z,96958.89
2023-07-19T07:27:04.329Z,96961.32
2023-07-19T07:29:32.070Z,96960.80
2023-07-19T07:31:59.890Z,96959.52
2023-07-19T07:34:27.785Z,96955.50
2023-07-19T07:36:55.530Z,96950.69
2023-07-19T07:39:23.361Z,96947.53
2023-07-19T07:41:51.120Z,96950.00
2023-07-19T07:44:19.049Z,96949.20
2023-07-19T07:46:48.235Z,96945.23
2023-07-19T07:49:16.106Z,96944.85
2023-07-19T07:51:43.955Z,96945.90
2023-07-19T07:54:11.791Z,96949.02
2023-07-19T07:56:39.549Z,96946.48
2023-07-19T07:59:07.360Z,96938.83
2023-07-19T08:01:35.090Z,96938.48
2023-07-19T08:04:03.450Z,96935.42
2023-07-19T08:06:31.361Z,96934.89
2023-07-19T08:08:59.165Z,96934.51
2023-07-19T08:11:27.997Z,96930.83
2023-07-19T08:13:55.670Z,96929.19
2023-07-19T08:16:23.516Z,96937.44
2023-07-19T08:18:51.468Z,96937.84
2023-07-19T08:21:33.869Z,96936.61
2023-07-19T08:24:02.621Z,96934.91
2023-07-19T08:26:30.381Z,96932.58
2023-07-19T08:28:58.497Z,96932.87
2023-07-19T08:31:26.294Z,96931.98
2023-07-19T08:33:54.818Z,96929.48
2023-07-19T08:36:22.684Z,96932.94
2023-07-19T08:38:50.671Z,96928.28
2023-07-19T08:41:20.099Z,96929.14
2023-07-19T08:43:48.138Z,96922.94
2023-07-19T08:46:19.234Z,96922.16
2023-07-19T08:48:50.555Z,96921.11
2023-07-19T08:51:18.789Z,96923.50
2023-07-19T08:53:46.881Z,96918.75
2023-07-19T08:56:18.719Z,96915.02
2023-07-19T08:58:47.025Z,96913.33
2023-07-19T09:01:15.323Z,96908.42
2023-07-19T09:03:43.594Z,96905.78
2023-07-19T09:06:11.619Z,96902.20
2023-07-19T09:08:40.055Z,96902.33
2023-07-19T09:11:08.578Z,96903.10
2023-07-19T09:13:39.994Z,96903.11
2023-07-19T09:16:08.353Z,96901.23
2023-07-19T09:18:38.187Z,96902.93
2023-07-19T09:21:06.995Z,96901.66
2023-07-19T09:23:38.841Z,96901.66
2023-07-19T09:26:07.507Z,96894.86
2023-07-19T09:28:35.921Z,96895.10
2023-07-19T09:33:35.662Z,96889.43
2023-07-19T09:36:03.554Z,96882.98
2023-07-19T09:38:31.390Z,96881.78
2023-07-19T09:40:59.831Z,96876.38
2023-07-19T09:43:27.946Z,96874.13
2023-07-19T09:45:56.385Z,96869.33
2023-07-19T09:48:24.151Z,96865.95
2023-07-19T09:50:53.328Z,96860.80
2023-07-19T09:53:23.753Z,96858.05
2023-07-19T09:55:53.771Z,96856.27
2023-07-19T09:58:22.535Z,96855.34
2023-07-19T10:00:51.506Z,96856.11
2023-07-19T10:03:22.792Z,96854.55
2023-07-19T10:05:57.934Z,96848.22
2023-07-19T10:08:25.739Z,96841.91
2023-07-19T10:10:58.422Z,96839.08
2023-07-19T10:13:32.945Z,96838.41
2023-07-19T10:16:00.649Z,96832.91
2023-07-19T10:18:30.795Z,96834.91
2023-07-19T10:21:04.101Z,96836.38
2023-07-19T10:23:32.590Z,96834.52
2023-07-19T10:26:05.641Z,96833.80
2023-07-19T10:28:33.696Z,96836.17
2023-07-19T10:31:17.766Z,96826.74
2023-07-19T10:33:54.284Z,96821.64
2023-07-19T10:36:22.182Z,96821.52
2023-07-19T10:38:50.245Z,96824.07
2023-07-19T10:41:20.672Z,96823.38
2023-07-19T10:43:52.687Z,96818.96
2023-07-19T10:46:23.950Z,96815.67
2023-07-19T10:48:52.583Z,96815.81
2023-07-19T10:51:22.261Z,96821.23
2023-07-19T10:53:59.073Z,96819.61
2023-07-19T10:56:28.735Z,96819.45
2023-07-19T10:59:00.477Z,96821.63
2023-07-19T11:01:31.317Z,96822.61
2023-07-19T11:04:04.104Z,96824.70
2023-07-19T11:06:32.944Z,96827.37
2023-07-19T11:09:07.518Z,96824.93
2023-07-19T11:11:37.484Z,96828.11
2023-07-19T11:14:05.366Z,96828.70
2023-07-19T11:16:33.203Z,96828.17
2023-07-19T11:19:01.046Z,96830.94
2023-07-19T11:21:29.482Z,96828.05
2023-07-19T11:23:58.077Z,96830.59
2023-07-19T11:26:25.828Z,96827.54
2023-07-19T11:28:57.566Z,96821.70
2023-07-19T11:31:30.036Z,96814.90
2023-07-19T11:34:08.332Z,96811.67
2023-07-19T11:36:40.517Z,96811.80
2023-07-19T11:39:18.392Z,96815.15
2023-07-19T11:41:47.452Z,96818.70
2023-07-19T11:44:16.126Z,96815.41
2023-07-19T11:46:44.459Z,96814.98
2023-07-19T11:49:12.357Z,96809.48
2023-07-19T11:51:40.549Z,96804.48
2023-07-19T11:54:08.806Z,96801.33
2023-07-19T11:56:37.058Z,96803.48
2023-07-19T11:59:06.070Z,96801.05
2023-07-19T12:01:33.856Z,96801.90
2023-07-19T12:04:03.651Z,96801.83
2023-07-19T12:06:32.566Z,96797.62
2023-07-19T12:09:00.719Z,96798.20
2023-07-19T12:11:28.842Z,96801.40
2023-07-19T12:13:59.143Z,96800.16
2023-07-19T12:16:27.424Z,96799.33
2023-07-19T12:18:55.442Z,96800.40
2023-07-19T12:21:23.388Z,96788.09
2023-07-19T12:28:54.861Z,96772.60
2023-07-19T12:31:22.696Z,96767.27
2023-07-19T12:33:50.951Z,96767.29
2023-07-19T12:36:19.042Z,96764.19
2023-07-19T12:38:49.125Z,96762.96
2023-07-19T12:41:17.804Z,96755.10
2023-07-19T12:43:45.516Z,96746.55
2023-07-19T12:46:13.504Z,96741.54
2023-07-19T12:48:41.889Z,96738.33
2023-07-19T12:51:09.851Z,96730.07
2023-07-19T12:53:39.268Z,96735.05
2023-07-19T12:56:07.964Z,96743.98
2023-07-19T12:58:35.864Z,96747.53
2023-07-19T13:01:03.785Z,96742.52
2023-07-19T13:03:31.781Z,96738.96
2023-07-19T13:05:59.875Z,96738.83
2023-07-19T13:08:28.625Z,96742.00
2023-07-19T13:10:57.274Z,96739.25
2023-07-19T13:13:26.462Z,96744.17
2023-07-19T13:15:54.202Z,96745.77
2023-07-19T13:18:22.111Z,96738.17
2023-07-19T13:20:49.935Z,96732.90
2023-07-19T13:23:18.495Z,96730.34
2023-07-19T13:25:46.630Z,96727.73
2023-07-19T13:28:15.003Z,96727.14
2023-07-19T13:30:44.364Z,96725.39
2023-07-19T13:33:12.531Z,96723.27
2023-07-19T13:38:11.027Z,96716.82
2023-07-19T13:40:39.490Z,96716.10
2023-07-19T13:43:07.589Z,96711.21
2023-07-19T13:45:35.455Z,96708.68
2023-07-19T13:48:03.937Z,96708.20
2023-07-19T13:50:31.962Z,96698.52
2023-07-19T13:53:00.369Z,96694.88
2023-07-19T13:55:28.206Z,96690.77
2023-07-19T13:57:56.006Z,96691.09
2023-07-19T14:00:24.400Z,96686.13
2023-07-19T14:02:52.178Z,96676.17
2023-07-19T14:05:21.193Z,96668.54
2023-07-19T14:07:49.145Z,96664.46
2023-07-19T14:10:16.911Z,96659.89
2023-07-19T14:12:45.130Z,96660.73
2023-07-19T14:15:12.975Z,96656.36
2023-07-19T14:17:41.540Z,96653.77
2023-07-19T14:20:10.759Z,96654.48
2023-07-19T14:22:38.579Z,96654.30
2023-07-19T14:25:08.123Z,96648.77
2023-07-19T14:27:38.113Z,96643.27
2023-07-19T14:30:07.955Z,96642.66
2023-07-19T14:32:36.366Z,96639.27
2023-07-19T14:35:04.413Z,96635.77
2023-07-19T14:37:32.545Z,96635.72
2023-07-19T14:40:00.385Z,96633.27
2023-07-19T14:42:28.199Z,96635.42
2023-07-19T14:44:55.947Z,96631.66
2023-07-19T14:47:24.916Z,96632.42
2023-07-19T14:49:52.937Z,96630.03
2023-07-19T14:52:21.269Z,96629.40
2023-07-19T14:54:51.045Z,96631.54
2023-07-19T14:57:19.039Z,96633.42
2023-07-19T14:59:50.014Z,96633.02
2023-07-19T15:02:33.504Z,96626.17
2023-07-19T15:05:03.047Z,96623.05
2023-07-19T15:07:30.836Z,96617.48
2023-07-19T15:09:58.665Z,96614.86
2023-07-19T15:12:26.556Z,96607.52
2023-07-19T15:14:54.314Z,96608.27
2023-07-19T15:17:23.181Z,96604.23
2023-07-19T15:19:51.143Z,96600.41
2023-07-19T15:22:20.571Z,96594.43
2023-07-19T15:24:49.015Z,96588.40
2023-07-19T15:27:16.837Z,96583.95
2023-07-19T15:29:47.122Z,96580.89
2023-07-19T15:32:15.327Z,96583.66
2023-07-19T15:34:43.071Z,96581.86
2023-07-19T15:37:10.812Z,96579.61
2023-07-19T15:39:38.634Z,96581.98
2023-07-19T15:42:06.639Z,96584.35
2023-07-19T15:44:36.624Z,96583.88
2023-07-19T15:47:05.674Z,96580.44
2023-07-19T15:49:34.030Z,96580.67
2023-07-19T15:52:02.044Z,96572.38
2023-07-19T15:54:30.305Z,96567.59
2023-07-19T15:56:58.484Z,96566.46
2023-07-19T15:59:26.232Z,96561.90
2023-07-19T16:01:54.808Z,96560.30
2023-07-19T16:04:23.198Z,96565.10
2023-07-19T16:06:50.988Z,96571.83
2023-07-19T16:09:18.679Z,96576.79
2023-07-19T16:11:46.439Z,96581.02
2023-07-19T16:14:14.169Z,96587.23
2023-07-19T16:16:41.888Z,96588.07
2023-07-19T16:19:10.462Z,96584.61
2023-07-19T16:21:39.052Z,96591.70
2023-07-19T16:24:06.797Z,96595.91
2023-07-19T16:26:34.551Z,96596.31
2023-07-19T16:29:02.261Z,96596.80
2023-07-19T16:31:30.067Z,96589.63
2023-07-19T16:33:58.067Z,96582.58
2023-07-19T16:36:25.856Z,96580.80
2023-07-19T16:38:53.805Z,96582.61
2023-07-19T16:41:21.682Z,96589.62
2023-07-19T16:43:49.481Z,96591.80
2023-07-19T16:46:17.204Z,96591.14
2023-07-19T16:48:45.001Z,96593.54
2023-07-19T16:51:12.789Z,96602.51
2023-07-19T16:53:40.501Z,96603.87
2023-07-19T16:56:08.619Z,96596.55
2023-07-19T16:58:36.433Z,96581.02
2023-07-19T17:01:04.301Z,96579.27
2023-07-19T17:03:32.338Z,96586.23
2023-07-19T17:06:00.117Z,96585.68
2023-07-19T17:08:27.910Z,96579.40
2023-07-19T17:10:55.795Z,96572.95
2023-07-19T17:13:25.770Z,96574.82
2023-07-19T17:15:54.086Z,96586.13
2023-07-19T17:18:23.996Z,96595.80
2023-07-19T17:20:52.161Z,96599.89
2023-07-19T17:23:20.042Z,96599.29
2023-07-19T17:25:47.809Z,96592.41
2023-07-19T17:28:16.019Z,96591.52
2023-07-19T17:30:43.869Z,96588.64
2023-07-19T17:33:11.694Z,96588.02
2023-07-19T17:35:39.642Z,96595.88
2023-07-19T17:38:07.757Z,96599.63
2023-07-19T17:40:35.538Z,96597.15
2023-07-19T17:43:03.607Z,96596.75
2023-07-19T17:45:31.287Z,96604.12
2023-07-19T17:47:59.441Z,96601.73
2023-07-19T17:50:27.811Z,96585.96
2023-07-19T17:52:55.737Z,96578.05
2023-07-19T17:55:23.525Z,96571.52
2023-07-19T17:57:57.374Z,96572.11
2023-07-19T18:00:25.477Z,96573.55
2023-07-19T18:02:53.674Z,96573.50
2023-07-19T18:05:21.579Z,96570.32
2023-07-19T18:07:49.362Z,96570.63
2023-07-19T18:10:17.318Z,96563.86
2023-07-19T18:12:45.106Z,96564.47
2023-07-19T18:15:13.078Z,96567.77
2023-07-19T18:17:41.416Z,96569.02
2023-07-19T18:20:09.807Z,96569.73
2023-07-19T18:22:37.769Z,96570.24
2023-07-19T18:25:05.792Z,96576.35
2023-07-19T18:27:33.651Z,96585.14
2023-07-19T18:30:01.469Z,96577.73
2023-07-19T18:32:30.544Z,96570.20
2023-07-19T18:34:58.404Z,96574.70
2023-07-19T18:37:26.308Z,96573.08
2023-07-19T18:39:56.429Z,96571.82
2023-07-19T18:42:24.749Z,96570.42
2023-07-19T18:44:52.558Z,96567.63
2023-07-19T18:47:20.427Z,96565.95
2023-07-19T18:49:48.196Z,96562.56
2023-07-19T18:52:15.973Z,96559.46
2023-07-19T18:54:43.706Z,96561.85
2023-07-19T18:57:11.530Z,96560.48
2023-07-19T18:59:39.792Z,96556.41
2023-07-19T19:02:07.506Z,96560.94
2023-07-19T19:04:35.251Z,96564.57
2023-07-19T19:07:03.767Z,96561.35
2023-07-19T19:09:34.282Z,96560.02
2023-07-19T19:12:03.998Z,96565.31
2023-07-19T19:14:31.832Z,96575.60
2023-07-19T19:16:59.885Z,96581.23
2023-07-19T19:19:28.076Z,96581.36
2023-07-19T19:21:55.834Z,96583.64
2023-07-19T19:24:23.553Z,96579.06
2023-07-19T19:26:51.430Z,96575.06
2023-07-19T19:29:21.907Z,96567.94
2023-07-19T19:31:49.719Z,96568.40
2023-07-19T19:34:17.535Z,96570.92
2023-07-19T19:36:45.749Z,96577.33
2023-07-19T19:39:28.445Z,96580.68
2023-07-19T19:41:58.333Z,96583.70
2023-07-19T19:44:26.081Z,96594.54
2023-07-19T19:46:53.901Z,96610.13
2023-07-19T19:49:21.628Z,96614.80
2023-07-19T19:51:52.146Z,96612.96
2023-07-19T19:54:19.982Z,96613.73
2023-07-19T19:56:51.275Z,96615.96
2023-07-19T19:59:21.810Z,96621.02
2023-07-19T20:01:51.872Z,96620.63
2023-07-19T20:04:39.184Z,96625.02
2023-07-19T20:07:07.281Z,96634.77
2023-07-19T20:09:40.894Z,96643.70
2023-07-19T20:12:15.290Z,96643.60
2023-07-19T20:14:43.156Z,96643.98
2023-07-19T20:17:10.998Z,96643.52
2023-07-19T20:19:38.736Z,96648.48
2023-07-19T20:22:06.701Z,96647.81
2023-07-19T20:24:41.265Z,96651.05
2023-07-19T20:27:17.965Z,96643.35
2023-07-19T20:34:56.496Z,96622.66
2023-07-19T20:39:56.290Z,96616.17
2023-07-19T20:42:27.349Z,96609.11
2023-07-19T20:44:56.019Z,96606.83
2023-07-19T20:47:23.898Z,96606.66
2023-07-19T20:49:51.771Z,96611.80
2023-07-19T20:52:19.558Z,96613.14
2023-07-19T20:54:47.326Z,96614.30
2023-07-19T20:57:15.102Z,96612.78
2023-07-19T20:59:43.486Z,96609.63
2023-07-19T21:02:11.236Z,96616.85
2023-07-19T21:04:39.436Z,96639.13
2023-07-19T21:07:07.670Z,96657.90
2023-07-19T21:09:35.384Z,96649.79
2023-07-19T21:12:03.423Z,96652.27
2023-07-19T21:14:31.255Z,96658.63
2023-07-19T21:16:59.175Z,96657.98
2023-07-19T21:19:26.959Z,96649.16
2023-07-19T21:21:55.145Z,96648.83
2023-07-19T21:24:22.926Z,96654.67
2023-07-19T21:26:50.728Z,96647.71
2023-07-19T21:29:18.745Z,96646.59
2023-07-19T21:31:46.486Z,96647.42
2023-07-19T21:34:14.971Z,96650.64
2023-07-19T21:36:42.878Z,96647.80
2023-07-19T21:39:10.598Z,96644.23
2023-07-19T21:41:38.386Z,96647.20
2023-07-19T21:44:06.878Z,96644.13
2023-07-19T21:46:34.893Z,96641.59
2023-07-19T21:49:02.680Z,96646.23
2023-07-19T21:51:30.622Z,96648.21
2023-07-19T21:53:58.360Z,96650.84
2023-07-19T21:56:26.571Z,96647.08
2023-07-19T21:58:54.826Z,96650.31
2023-07-19T22:01:22.560Z,96650.00
2023-07-19T22:03:50.386Z,96645.34
2023-07-19T22:06:18.334Z,96639.41
2023-07-19T22:08:46.037Z,96638.05
2023-07-19T22:11:13.818Z,96636.37
2023-07-19T22:13:42.946Z,96629.30
2023-07-19T22:16:10.754Z,96629.17
2023-07-19T22:18:38.481Z,96629.70
2023-07-19T22:21:19.822Z,96627.52
2023-07-19T22:23:49.845Z,96627.52
2023-07-19T22:26:17.655Z,96624.95
2023-07-19T22:28:45.335Z,96626.01
2023-07-19T22:31:13.152Z,96631.83
2023-07-19T22:33:41.176Z,96644.19
2023-07-19T22:36:08.936Z,96654.80
2023-07-19T22:38:37.050Z,96659.91
2023-07-19T22:41:04.870Z,96663.19
2023-07-19T22:43:33.546Z,96660.75
2023-07-19T22:46:01.332Z,96662.79
2023-07-19T22:48:29.119Z,96664.89
2023-07-19T22:50:56.968Z,96668.41
2023-07-19T22:53:24.725Z,96671.04
2023-07-19T22:55:52.426Z,96668.27
2023-07-19T22:58:20.164Z,96666.58
2023-07-19T23:00:51.898Z,96662.23
2023-07-19T23:03:19.740Z,96662.94
2023-07-19T23:05:47.566Z,96673.04
2023-07-19T23:08:15.369Z,96677.15
2023-07-19T23:10:43.083Z,96677.98
2023-07-19T23:13:10.782Z,96675.50
2023-07-19T23:15:38.562Z,96672.93
2023-07-19T23:18:06.555Z,96671.67
2023-07-19T23:20:34.339Z,96674.96
2023-07-19T23:23:02.042Z,96674.59
2023-07-19T23:25:31.289Z,96668.16
2023-07-19T23:28:02.000Z,96670.13
2023-07-19T23:30:30.743Z,96670.70
2023-07-19T23:32:58.645Z,96667.65
2023-07-19T23:35:26.397Z,96668.95
2023-07-19T23:37:54.508Z,96670.63
2023-07-19T23:40:22.268Z,96672.40
2023-07-19T23:42:49.979Z,96667.02
2023-07-19T23:45:17.716Z,96663.19
2023-07-19T23:47:45.445Z,96665.30
2023-07-19T23:50:13.192Z,96667.97
2023-07-19T23:52:41.105Z,96668.80
2023-07-19T23:55:08.906Z,96668.36
2023-07-19T23:57:36.709Z,96666.88
